sensor_id;sensor_type;location;lat;lon;timestamp;P1;durP1;ratioP1;P2;durP2;ratioP2
71164;SDS011;58859;55.132;-1.586;2023-06-22T00:01:27;6.35;;;3.47;;
71164;SDS011;58859;55.132;-1.586;2023-06-22T00:03:52;6.35;;;3.50;;
71164;SDS011;58859;55.132;-1.586;2023-06-22T00:06:18;6.17;;;3.97;;
71164;SDS011;58859;55.132;-1.586;2023-06-22T00:08:43;5.03;;;3.30;;
71164;SDS011;58859;55.132;-1.586;2023-06-22T00:11:09;4.10;;;2.88;;
71164;SDS011;58859;55.132;-1.586;2023-06-22T00:13:34;5.43;;;3.50;;
71164;SDS011;58859;55.132;-1.586;2023-06-22T00:16:00;4.33;;;3.23;;
71164;SDS011;58859;55.132;-1.586;2023-06-22T00:18:25;4.75;;;3.13;;
71164;SDS011;58859;55.132;-1.586;2023-06-22T00:20:53;4.60;;;3.40;;
71164;SDS011;58859;55.132;-1.586;2023-06-22T00:23:24;5.15;;;3.42;;
71164;SDS011;58859;55.132;-1.586;2023-06-22T00:25:50;5.10;;;3.90;;
71164;SDS011;58859;55.132;-1.586;2023-06-22T00:28:15;6.70;;;3.20;;
71164;SDS011;58859;55.132;-1.586;2023-06-22T00:30:41;5.13;;;3.47;;
71164;SDS011;58859;55.132;-1.586;2023-06-22T00:33:06;6.05;;;3.60;;
71164;SDS011;58859;55.132;-1.586;2023-06-22T00:35:32;5.30;;;3.38;;
71164;SDS011;58859;55.132;-1.586;2023-06-22T00:37:58;5.28;;;3.38;;
71164;SDS011;58859;55.132;-1.586;2023-06-22T00:40:29;4.90;;;3.30;;
71164;SDS011;58859;55.132;-1.586;2023-06-22T00:42:56;8.70;;;3.88;;
71164;SDS011;58859;55.132;-1.586;2023-06-22T00:45:24;4.10;;;3.47;;
71164;SDS011;58859;55.132;-1.586;2023-06-22T00:47:51;5.93;;;4.13;;
71164;SDS011;58859;55.132;-1.586;2023-06-22T00:50:22;4.75;;;3.53;;
71164;SDS011;58859;55.132;-1.586;2023-06-22T00:52:53;5.10;;;3.75;;
71164;SDS011;58859;55.132;-1.586;2023-06-22T00:55:22;4.82;;;3.47;;
71164;SDS011;58859;55.132;-1.586;2023-06-22T00:57:48;4.10;;;3.20;;
71164;SDS011;58859;55.132;-1.586;2023-06-22T01:00:14;5.45;;;4.00;;
71164;SDS011;58859;55.132;-1.586;2023-06-22T01:02:42;5.27;;;3.23;;
71164;SDS011;58859;55.132;-1.586;2023-06-22T01:05:10;5.65;;;3.60;;
71164;SDS011;58859;55.132;-1.586;2023-06-22T01:07:41;4.72;;;3.83;;
71164;SDS011;58859;55.132;-1.586;2023-06-22T01:12:57;5.57;;;3.63;;
71164;SDS011;58859;55.132;-1.586;2023-06-22T01:17:58;8.18;;;4.55;;
71164;SDS011;58859;55.132;-1.586;2023-06-22T01:20:25;4.85;;;3.70;;
71164;SDS011;58859;55.132;-1.586;2023-06-22T01:22:58;4.95;;;3.80;;
71164;SDS011;58859;55.132;-1.586;2023-06-22T01:25:34;5.57;;;3.53;;
71164;SDS011;58859;55.132;-1.586;2023-06-22T01:31:13;4.95;;;3.60;;
71164;SDS011;58859;55.132;-1.586;2023-06-22T01:33:42;8.63;;;3.70;;
71164;SDS011;58859;55.132;-1.586;2023-06-22T01:36:10;7.70;;;4.25;;
71164;SDS011;58859;55.132;-1.586;2023-06-22T01:38:36;5.60;;;3.70;;
71164;SDS011;58859;55.132;-1.586;2023-06-22T01:41:03;7.20;;;3.43;;
71164;SDS011;58859;55.132;-1.586;2023-06-22T01:43:29;4.07;;;3.35;;
71164;SDS011;58859;55.132;-1.586;2023-06-22T01:45:55;5.22;;;3.20;;
71164;SDS011;58859;55.132;-1.586;2023-06-22T01:48:22;9.68;;;3.70;;
71164;SDS011;58859;55.132;-1.586;2023-06-22T01:50:48;5.67;;;2.70;;
71164;SDS011;58859;55.132;-1.586;2023-06-22T01:53:14;4.60;;;3.05;;
71164;SDS011;58859;55.132;-1.586;2023-06-22T01:55:39;4.90;;;3.67;;
71164;SDS011;58859;55.132;-1.586;2023-06-22T01:58:05;6.80;;;3.73;;
71164;SDS011;58859;55.132;-1.586;2023-06-22T02:00:31;5.28;;;3.33;;
71164;SDS011;58859;55.132;-1.586;2023-06-22T02:03:05;7.57;;;3.97;;
71164;SDS011;58859;55.132;-1.586;2023-06-22T02:05:36;5.13;;;3.17;;
71164;SDS011;58859;55.132;-1.586;2023-06-22T02:08:08;5.25;;;3.42;;
71164;SDS011;58859;55.132;-1.586;2023-06-22T02:10:37;5.10;;;3.17;;
71164;SDS011;58859;55.132;-1.586;2023-06-22T02:13:06;4.82;;;3.30;;
71164;SDS011;58859;55.132;-1.586;2023-06-22T02:15:33;4.73;;;3.30;;
71164;SDS011;58859;55.132;-1.586;2023-06-22T02:17:59;5.80;;;3.92;;
71164;SDS011;58859;55.132;-1.586;2023-06-22T02:20:25;8.80;;;4.05;;
71164;SDS011;58859;55.132;-1.586;2023-06-22T02:22:51;4.70;;;3.23;;
71164;SDS011;58859;55.132;-1.586;2023-06-22T02:25:16;4.50;;;3.20;;
71164;SDS011;58859;55.132;-1.586;2023-06-22T02:27:42;4.87;;;3.10;;
71164;SDS011;58859;55.132;-1.586;2023-06-22T02:30:07;6.43;;;3.38;;
71164;SDS011;58859;55.132;-1.586;2023-06-22T02:32:34;6.80;;;3.28;;
71164;SDS011;58859;55.132;-1.586;2023-06-22T02:34:59;5.30;;;3.47;;
71164;SDS011;58859;55.132;-1.586;2023-06-22T02:37:28;6.55;;;3.65;;
71164;SDS011;58859;55.132;-1.586;2023-06-22T02:39:54;5.75;;;3.85;;
71164;SDS011;58859;55.132;-1.586;2023-06-22T02:42:20;5.03;;;3.17;;
71164;SDS011;58859;55.132;-1.586;2023-06-22T02:44:46;5.05;;;3.78;;
71164;SDS011;58859;55.132;-1.586;2023-06-22T02:47:12;8.30;;;3.57;;
71164;SDS011;58859;55.132;-1.586;2023-06-22T02:49:37;4.93;;;3.53;;
71164;SDS011;58859;55.132;-1.586;2023-06-22T02:52:03;6.37;;;3.73;;
71164;SDS011;58859;55.132;-1.586;2023-06-22T02:54:28;5.35;;;3.33;;
71164;SDS011;58859;55.132;-1.586;2023-06-22T02:56:54;6.97;;;4.13;;
71164;SDS011;58859;55.132;-1.586;2023-06-22T02:59:19;4.93;;;3.47;;
71164;SDS011;58859;55.132;-1.586;2023-06-22T03:01:51;5.10;;;3.72;;
71164;SDS011;58859;55.132;-1.586;2023-06-22T03:04:17;5.82;;;3.75;;
71164;SDS011;58859;55.132;-1.586;2023-06-22T03:06:43;4.53;;;3.43;;
71164;SDS011;58859;55.132;-1.586;2023-06-22T03:09:08;7.37;;;3.80;;
71164;SDS011;58859;55.132;-1.586;2023-06-22T03:11:34;5.68;;;3.22;;
71164;SDS011;58859;55.132;-1.586;2023-06-22T03:14:00;5.57;;;3.00;;
71164;SDS011;58859;55.132;-1.586;2023-06-22T03:16:26;5.22;;;3.65;;
71164;SDS011;58859;55.132;-1.586;2023-06-22T03:18:52;4.60;;;3.40;;
71164;SDS011;58859;55.132;-1.586;2023-06-22T03:21:18;4.55;;;3.85;;
71164;SDS011;58859;55.132;-1.586;2023-06-22T03:23:45;4.32;;;3.28;;
71164;SDS011;58859;55.132;-1.586;2023-06-22T03:26:10;4.27;;;3.43;;
71164;SDS011;58859;55.132;-1.586;2023-06-22T03:28:36;3.97;;;3.00;;
71164;SDS011;58859;55.132;-1.586;2023-06-22T03:31:03;6.65;;;3.63;;
71164;SDS011;58859;55.132;-1.586;2023-06-22T03:33:29;6.03;;;3.75;;
71164;SDS011;58859;55.132;-1.586;2023-06-22T03:35:54;5.78;;;3.33;;
71164;SDS011;58859;55.132;-1.586;2023-06-22T03:38:20;5.40;;;4.00;;
71164;SDS011;58859;55.132;-1.586;2023-06-22T03:40:45;4.50;;;3.33;;
71164;SDS011;58859;55.132;-1.586;2023-06-22T03:43:11;5.27;;;3.17;;
71164;SDS011;58859;55.132;-1.586;2023-06-22T03:45:36;4.23;;;3.13;;
71164;SDS011;58859;55.132;-1.586;2023-06-22T03:48:02;5.00;;;3.65;;
71164;SDS011;58859;55.132;-1.586;2023-06-22T03:50:28;5.47;;;3.27;;
71164;SDS011;58859;55.132;-1.586;2023-06-22T03:52:53;4.47;;;2.90;;
71164;SDS011;58859;55.132;-1.586;2023-06-22T03:55:21;8.63;;;4.27;;
71164;SDS011;58859;55.132;-1.586;2023-06-22T03:57:47;6.22;;;3.25;;
71164;SDS011;58859;55.132;-1.586;2023-06-22T04:00:12;8.33;;;3.37;;
71164;SDS011;58859;55.132;-1.586;2023-06-22T04:02:38;3.65;;;3.00;;
71164;SDS011;58859;55.132;-1.586;2023-06-22T04:05:04;5.90;;;3.20;;
71164;SDS011;58859;55.132;-1.586;2023-06-22T04:07:30;5.50;;;3.73;;
71164;SDS011;58859;55.132;-1.586;2023-06-22T04:09:55;4.28;;;3.42;;
71164;SDS011;58859;55.132;-1.586;2023-06-22T04:12:21;5.77;;;3.73;;
71164;SDS011;58859;55.132;-1.586;2023-06-22T04:14:46;5.40;;;3.87;;
71164;SDS011;58859;55.132;-1.586;2023-06-22T04:17:11;5.20;;;3.73;;
71164;SDS011;58859;55.132;-1.586;2023-06-22T04:19:39;5.90;;;3.63;;
71164;SDS011;58859;55.132;-1.586;2023-06-22T04:22:04;5.97;;;3.92;;
71164;SDS011;58859;55.132;-1.586;2023-06-22T04:24:32;4.47;;;3.33;;
71164;SDS011;58859;55.132;-1.586;2023-06-22T04:26:57;6.82;;;3.60;;
71164;SDS011;58859;55.132;-1.586;2023-06-22T04:29:27;5.70;;;3.63;;
71164;SDS011;58859;55.132;-1.586;2023-06-22T04:31:55;6.05;;;4.07;;
71164;SDS011;58859;55.132;-1.586;2023-06-22T04:34:23;4.70;;;3.40;;
71164;SDS011;58859;55.132;-1.586;2023-06-22T04:36:52;7.13;;;3.95;;
71164;SDS011;58859;55.132;-1.586;2023-06-22T04:39:18;5.90;;;3.40;;
71164;SDS011;58859;55.132;-1.586;2023-06-22T04:41:44;8.73;;;4.13;;
71164;SDS011;58859;55.132;-1.586;2023-06-22T04:44:10;5.18;;;3.65;;
71164;SDS011;58859;55.132;-1.586;2023-06-22T04:46:55;5.03;;;3.43;;
71164;SDS011;58859;55.132;-1.586;2023-06-22T04:49:28;4.53;;;3.08;;
71164;SDS011;58859;55.132;-1.586;2023-06-22T04:52:01;5.35;;;3.67;;
71164;SDS011;58859;55.132;-1.586;2023-06-22T04:54:31;5.53;;;3.60;;
71164;SDS011;58859;55.132;-1.586;2023-06-22T04:57:00;8.05;;;3.67;;
71164;SDS011;58859;55.132;-1.586;2023-06-22T04:59:26;4.93;;;3.70;;
71164;SDS011;58859;55.132;-1.586;2023-06-22T05:01:58;4.88;;;3.45;;
71164;SDS011;58859;55.132;-1.586;2023-06-22T05:04:24;5.25;;;3.35;;
71164;SDS011;58859;55.132;-1.586;2023-06-22T05:06:52;4.93;;;3.40;;
71164;SDS011;58859;55.132;-1.586;2023-06-22T05:09:18;8.63;;;4.13;;
71164;SDS011;58859;55.132;-1.586;2023-06-22T05:11:44;4.88;;;3.55;;
71164;SDS011;58859;55.132;-1.586;2023-06-22T05:14:09;5.15;;;3.53;;
71164;SDS011;58859;55.132;-1.586;2023-06-22T05:16:36;5.87;;;3.67;;
71164;SDS011;58859;55.132;-1.586;2023-06-22T05:19:01;4.72;;;3.10;;
71164;SDS011;58859;55.132;-1.586;2023-06-22T05:21:30;6.75;;;3.72;;
71164;SDS011;58859;55.132;-1.586;2023-06-22T05:23:56;4.03;;;3.22;;
71164;SDS011;58859;55.132;-1.586;2023-06-22T05:26:27;5.38;;;3.20;;
71164;SDS011;58859;55.132;-1.586;2023-06-22T05:28:52;6.23;;;3.70;;
71164;SDS011;58859;55.132;-1.586;2023-06-22T05:31:18;4.97;;;3.10;;
71164;SDS011;58859;55.132;-1.586;2023-06-22T05:33:47;4.57;;;3.35;;
71164;SDS011;58859;55.132;-1.586;2023-06-22T05:36:14;5.00;;;3.13;;
71164;SDS011;58859;55.132;-1.586;2023-06-22T05:38:40;4.65;;;2.83;;
71164;SDS011;58859;55.132;-1.586;2023-06-22T05:41:07;8.30;;;3.40;;
71164;SDS011;58859;55.132;-1.586;2023-06-22T05:43:32;4.30;;;2.90;;
71164;SDS011;58859;55.132;-1.586;2023-06-22T05:45:59;4.63;;;3.05;;
71164;SDS011;58859;55.132;-1.586;2023-06-22T05:48:25;7.18;;;2.78;;
71164;SDS011;58859;55.132;-1.586;2023-06-22T05:50:50;5.43;;;3.10;;
71164;SDS011;58859;55.132;-1.586;2023-06-22T05:53:16;4.10;;;3.20;;
71164;SDS011;58859;55.132;-1.586;2023-06-22T05:55:41;4.50;;;2.77;;
71164;SDS011;58859;55.132;-1.586;2023-06-22T05:58:07;3.55;;;2.72;;
71164;SDS011;58859;55.132;-1.586;2023-06-22T06:00:33;4.47;;;2.88;;
71164;SDS011;58859;55.132;-1.586;2023-06-22T06:02:59;3.88;;;3.00;;
71164;SDS011;58859;55.132;-1.586;2023-06-22T06:05:31;3.30;;;2.50;;
71164;SDS011;58859;55.132;-1.586;2023-06-22T06:07:59;5.47;;;3.22;;
71164;SDS011;58859;55.132;-1.586;2023-06-22T06:10:29;4.97;;;2.78;;
71164;SDS011;58859;55.132;-1.586;2023-06-22T06:12:55;3.70;;;2.67;;
71164;SDS011;58859;55.132;-1.586;2023-06-22T06:15:21;4.20;;;3.03;;
71164;SDS011;58859;55.132;-1.586;2023-06-22T06:17:48;4.05;;;3.05;;
71164;SDS011;58859;55.132;-1.586;2023-06-22T06:20:15;3.28;;;2.83;;
71164;SDS011;58859;55.132;-1.586;2023-06-22T06:22:43;3.17;;;2.55;;
71164;SDS011;58859;55.132;-1.586;2023-06-22T06:25:08;5.07;;;3.17;;
71164;SDS011;58859;55.132;-1.586;2023-06-22T06:27:34;4.10;;;2.80;;
71164;SDS011;58859;55.132;-1.586;2023-06-22T06:29:59;5.20;;;2.72;;
71164;SDS011;58859;55.132;-1.586;2023-06-22T06:32:25;5.20;;;2.50;;
71164;SDS011;58859;55.132;-1.586;2023-06-22T06:34:50;3.87;;;2.70;;
71164;SDS011;58859;55.132;-1.586;2023-06-22T06:37:16;4.53;;;2.90;;
71164;SDS011;58859;55.132;-1.586;2023-06-22T06:39:43;6.13;;;2.60;;
71164;SDS011;58859;55.132;-1.586;2023-06-22T06:42:09;4.93;;;2.42;;
71164;SDS011;58859;55.132;-1.586;2023-06-22T06:44:36;3.83;;;2.67;;
71164;SDS011;58859;55.132;-1.586;2023-06-22T06:47:02;4.07;;;2.65;;
71164;SDS011;58859;55.132;-1.586;2023-06-22T06:49:28;2.90;;;2.42;;
71164;SDS011;58859;55.132;-1.586;2023-06-22T06:51:54;4.77;;;2.90;;
71164;SDS011;58859;55.132;-1.586;2023-06-22T06:54:20;3.25;;;2.72;;
71164;SDS011;58859;55.132;-1.586;2023-06-22T06:56:46;2.60;;;2.30;;
71164;SDS011;58859;55.132;-1.586;2023-06-22T06:59:13;3.20;;;2.50;;
71164;SDS011;58859;55.132;-1.586;2023-06-22T07:01:40;3.22;;;2.60;;
71164;SDS011;58859;55.132;-1.586;2023-06-22T07:04:06;3.45;;;2.10;;
71164;SDS011;58859;55.132;-1.586;2023-06-22T07:06:31;2.80;;;2.50;;
71164;SDS011;58859;55.132;-1.586;2023-06-22T07:08:58;3.40;;;2.40;;
71164;SDS011;58859;55.132;-1.586;2023-06-22T07:11:23;3.38;;;2.33;;
71164;SDS011;58859;55.132;-1.586;2023-06-22T07:13:49;2.83;;;2.43;;
71164;SDS011;58859;55.132;-1.586;2023-06-22T07:16:14;2.97;;;2.67;;
71164;SDS011;58859;55.132;-1.586;2023-06-22T07:18:40;2.47;;;2.17;;
71164;SDS011;58859;55.132;-1.586;2023-06-22T07:21:05;3.35;;;2.20;;
71164;SDS011;58859;55.132;-1.586;2023-06-22T07:23:32;2.83;;;2.40;;
71164;SDS011;58859;55.132;-1.586;2023-06-22T07:25:57;2.80;;;2.10;;
71164;SDS011;58859;55.132;-1.586;2023-06-22T07:28:26;3.80;;;1.92;;
71164;SDS011;58859;55.132;-1.586;2023-06-22T07:30:52;2.97;;;2.10;;
71164;SDS011;58859;55.132;-1.586;2023-06-22T07:33:18;2.80;;;2.03;;
71164;SDS011;58859;55.132;-1.586;2023-06-22T07:35:44;2.30;;;1.95;;
71164;SDS011;58859;55.132;-1.586;2023-06-22T07:38:10;2.83;;;2.30;;
71164;SDS011;58859;55.132;-1.586;2023-06-22T07:40:35;2.63;;;1.90;;
71164;SDS011;58859;55.132;-1.586;2023-06-22T07:43:01;2.50;;;2.30;;
71164;SDS011;58859;55.132;-1.586;2023-06-22T07:45:28;2.28;;;2.08;;
71164;SDS011;58859;55.132;-1.586;2023-06-22T07:47:54;2.87;;;2.17;;
71164;SDS011;58859;55.132;-1.586;2023-06-22T07:50:19;2.20;;;1.97;;
71164;SDS011;58859;55.132;-1.586;2023-06-22T07:52:45;3.42;;;2.20;;
71164;SDS011;58859;55.132;-1.586;2023-06-22T07:55:10;2.20;;;1.90;;
71164;SDS011;58859;55.132;-1.586;2023-06-22T07:57:36;3.28;;;1.98;;
71164;SDS011;58859;55.132;-1.586;2023-06-22T08:00:03;2.40;;;2.13;;
71164;SDS011;58859;55.132;-1.586;2023-06-22T08:02:41;2.35;;;2.15;;
71164;SDS011;58859;55.132;-1.586;2023-06-22T08:05:08;2.40;;;1.60;;
71164;SDS011;58859;55.132;-1.586;2023-06-22T08:07:37;3.00;;;1.90;;
71164;SDS011;58859;55.132;-1.586;2023-06-22T08:10:08;2.90;;;2.38;;
71164;SDS011;58859;55.132;-1.586;2023-06-22T08:12:36;3.03;;;2.22;;
71164;SDS011;58859;55.132;-1.586;2023-06-22T08:15:02;2.93;;;2.07;;
71164;SDS011;58859;55.132;-1.586;2023-06-22T08:17:28;2.17;;;1.98;;
71164;SDS011;58859;55.132;-1.586;2023-06-22T08:19:53;2.33;;;1.90;;
71164;SDS011;58859;55.132;-1.586;2023-06-22T08:22:18;2.83;;;1.80;;
71164;SDS011;58859;55.132;-1.586;2023-06-22T08:24:44;2.93;;;2.07;;
71164;SDS011;58859;55.132;-1.586;2023-06-22T08:27:09;1.95;;;1.75;;
71164;SDS011;58859;55.132;-1.586;2023-06-22T08:29:38;2.88;;;1.90;;
71164;SDS011;58859;55.132;-1.586;2023-06-22T08:32:04;3.17;;;2.10;;
71164;SDS011;58859;55.132;-1.586;2023-06-22T08:34:30;2.50;;;2.20;;
71164;SDS011;58859;55.132;-1.586;2023-06-22T08:36:55;3.87;;;2.10;;
71164;SDS011;58859;55.132;-1.586;2023-06-22T08:39:21;3.30;;;2.42;;
71164;SDS011;58859;55.132;-1.586;2023-06-22T08:41:47;2.90;;;2.33;;
71164;SDS011;58859;55.132;-1.586;2023-06-22T08:44:12;4.18;;;2.20;;
71164;SDS011;58859;55.132;-1.586;2023-06-22T08:46:38;3.23;;;2.20;;
71164;SDS011;58859;55.132;-1.586;2023-06-22T08:49:05;4.22;;;2.42;;
71164;SDS011;58859;55.132;-1.586;2023-06-22T08:51:31;4.22;;;2.50;;
71164;SDS011;58859;55.132;-1.586;2023-06-22T08:53:57;3.53;;;2.20;;
71164;SDS011;58859;55.132;-1.586;2023-06-22T08:56:31;2.78;;;2.35;;
71164;SDS011;58859;55.132;-1.586;2023-06-22T08:58:57;3.37;;;2.40;;
71164;SDS011;58859;55.132;-1.586;2023-06-22T09:01:22;2.75;;;2.30;;
71164;SDS011;58859;55.132;-1.586;2023-06-22T09:03:47;2.65;;;2.20;;
71164;SDS011;58859;55.132;-1.586;2023-06-22T09:06:19;2.83;;;2.50;;
71164;SDS011;58859;55.132;-1.586;2023-06-22T09:08:46;3.30;;;3.00;;
71164;SDS011;58859;55.132;-1.586;2023-06-22T09:11:12;2.40;;;2.20;;
71164;SDS011;58859;55.132;-1.586;2023-06-22T09:13:37;2.55;;;2.30;;
71164;SDS011;58859;55.132;-1.586;2023-06-22T09:16:03;2.50;;;2.20;;
71164;SDS011;58859;55.132;-1.586;2023-06-22T09:18:28;2.37;;;2.13;;
71164;SDS011;58859;55.132;-1.586;2023-06-22T09:20:54;2.40;;;2.20;;
71164;SDS011;58859;55.132;-1.586;2023-06-22T09:23:19;4.60;;;2.53;;
71164;SDS011;58859;55.132;-1.586;2023-06-22T09:25:44;4.07;;;2.83;;
71164;SDS011;58859;55.132;-1.586;2023-06-22T09:28:12;4.00;;;2.43;;
71164;SDS011;58859;55.132;-1.586;2023-06-22T09:30:37;3.42;;;2.20;;
71164;SDS011;58859;55.132;-1.586;2023-06-22T09:33:03;2.73;;;2.30;;
71164;SDS011;58859;55.132;-1.586;2023-06-22T09:35:28;4.87;;;2.20;;
71164;SDS011;58859;55.132;-1.586;2023-06-22T09:37:53;2.97;;;2.10;;
71164;SDS011;58859;55.132;-1.586;2023-06-22T09:40:19;2.38;;;2.15;;
71164;SDS011;58859;55.132;-1.586;2023-06-22T09:42:45;3.73;;;2.20;;
71164;SDS011;58859;55.132;-1.586;2023-06-22T09:45:10;3.83;;;1.90;;
71164;SDS011;58859;55.132;-1.586;2023-06-22T09:47:36;3.33;;;2.40;;
71164;SDS011;58859;55.132;-1.586;2023-06-22T09:50:02;1.90;;;1.73;;
71164;SDS011;58859;55.132;-1.586;2023-06-22T09:52:27;4.65;;;2.35;;
71164;SDS011;58859;55.132;-1.586;2023-06-22T09:54:53;3.10;;;2.10;;
71164;SDS011;58859;55.132;-1.586;2023-06-22T09:57:18;3.47;;;2.10;;
71164;SDS011;58859;55.132;-1.586;2023-06-22T09:59:43;4.53;;;1.93;;
71164;SDS011;58859;55.132;-1.586;2023-06-22T10:02:09;2.60;;;1.90;;
71164;SDS011;58859;55.132;-1.586;2023-06-22T10:04:35;2.90;;;1.83;;
71164;SDS011;58859;55.132;-1.586;2023-06-22T10:07:01;3.15;;;1.67;;
71164;SDS011;58859;55.132;-1.586;2023-06-22T10:09:27;3.85;;;2.30;;
71164;SDS011;58859;55.132;-1.586;2023-06-22T10:11:52;2.63;;;2.00;;
71164;SDS011;58859;55.132;-1.586;2023-06-22T10:14:18;3.30;;;2.33;;
71164;SDS011;58859;55.132;-1.586;2023-06-22T10:16:43;1.70;;;1.60;;
71164;SDS011;58859;55.132;-1.586;2023-06-22T10:19:09;2.60;;;2.05;;
71164;SDS011;58859;55.132;-1.586;2023-06-22T10:21:34;3.47;;;2.07;;
71164;SDS011;58859;55.132;-1.586;2023-06-22T10:24:00;2.40;;;1.83;;
71164;SDS011;58859;55.132;-1.586;2023-06-22T10:26:35;2.42;;;1.70;;
71164;SDS011;58859;55.132;-1.586;2023-06-22T10:29:01;3.88;;;1.70;;
71164;SDS011;58859;55.132;-1.586;2023-06-22T10:31:28;2.87;;;1.70;;
71164;SDS011;58859;55.132;-1.586;2023-06-22T10:33:54;2.25;;;1.65;;
71164;SDS011;58859;55.132;-1.586;2023-06-22T10:36:20;3.03;;;1.90;;
71164;SDS011;58859;55.132;-1.586;2023-06-22T10:38:46;3.85;;;1.90;;
71164;SDS011;58859;55.132;-1.586;2023-06-22T10:41:12;2.60;;;1.50;;
71164;SDS011;58859;55.132;-1.586;2023-06-22T10:43:38;2.20;;;1.60;;
71164;SDS011;58859;55.132;-1.586;2023-06-22T10:46:03;2.63;;;1.90;;
71164;SDS011;58859;55.132;-1.586;2023-06-22T10:48:29;3.13;;;1.77;;
71164;SDS011;58859;55.132;-1.586;2023-06-22T10:50:54;4.93;;;1.80;;
71164;SDS011;58859;55.132;-1.586;2023-06-22T10:53:20;2.35;;;1.52;;
71164;SDS011;58859;55.132;-1.586;2023-06-22T10:55:46;3.70;;;1.80;;
71164;SDS011;58859;55.132;-1.586;2023-06-22T10:58:11;3.08;;;1.77;;
71164;SDS011;58859;55.132;-1.586;2023-06-22T11:00:37;2.30;;;1.50;;
71164;SDS011;58859;55.132;-1.586;2023-06-22T11:03:02;3.27;;;1.90;;
71164;SDS011;58859;55.132;-1.586;2023-06-22T11:05:28;2.83;;;1.40;;
71164;SDS011;58859;55.132;-1.586;2023-06-22T11:07:53;4.17;;;1.40;;
71164;SDS011;58859;55.132;-1.586;2023-06-22T11:10:18;1.83;;;1.50;;
71164;SDS011;58859;55.132;-1.586;2023-06-22T11:12:44;2.73;;;1.63;;
71164;SDS011;58859;55.132;-1.586;2023-06-22T11:15:09;3.80;;;1.90;;
71164;SDS011;58859;55.132;-1.586;2023-06-22T11:17:35;2.20;;;1.80;;
71164;SDS011;58859;55.132;-1.586;2023-06-22T11:20:01;3.15;;;1.73;;
71164;SDS011;58859;55.132;-1.586;2023-06-22T11:22:26;2.42;;;1.25;;
71164;SDS011;58859;55.132;-1.586;2023-06-22T11:24:52;2.10;;;1.40;;
71164;SDS011;58859;55.132;-1.586;2023-06-22T11:27:17;2.80;;;1.20;;
71164;SDS011;58859;55.132;-1.586;2023-06-22T11:29:43;2.63;;;1.27;;
71164;SDS011;58859;55.132;-1.586;2023-06-22T11:32:08;1.60;;;1.20;;
71164;SDS011;58859;55.132;-1.586;2023-06-22T11:34:34;2.87;;;1.43;;
71164;SDS011;58859;55.132;-1.586;2023-06-22T11:36:59;3.72;;;1.35;;
71164;SDS011;58859;55.132;-1.586;2023-06-22T11:39:25;2.13;;;1.50;;
71164;SDS011;58859;55.132;-1.586;2023-06-22T11:41:50;2.13;;;1.93;;
71164;SDS011;58859;55.132;-1.586;2023-06-22T11:44:16;2.00;;;1.37;;
71164;SDS011;58859;55.132;-1.586;2023-06-22T11:46:41;1.77;;;1.33;;
71164;SDS011;58859;55.132;-1.586;2023-06-22T11:49:07;2.53;;;1.60;;
71164;SDS011;58859;55.132;-1.586;2023-06-22T11:51:33;1.30;;;1.10;;
71164;SDS011;58859;55.132;-1.586;2023-06-22T11:53:58;2.88;;;1.42;;
71164;SDS011;58859;55.132;-1.586;2023-06-22T11:56:24;3.50;;;2.22;;
71164;SDS011;58859;55.132;-1.586;2023-06-22T11:58:49;2.10;;;1.50;;
71164;SDS011;58859;55.132;-1.586;2023-06-22T12:01:14;3.17;;;1.43;;
71164;SDS011;58859;55.132;-1.586;2023-06-22T12:03:40;4.05;;;1.40;;
71164;SDS011;58859;55.132;-1.586;2023-06-22T12:06:08;1.40;;;1.30;;
71164;SDS011;58859;55.132;-1.586;2023-06-22T12:08:33;3.47;;;1.45;;
71164;SDS011;58859;55.132;-1.586;2023-06-22T12:10:59;2.17;;;1.40;;
71164;SDS011;58859;55.132;-1.586;2023-06-22T12:13:24;2.20;;;1.33;;
71164;SDS011;58859;55.132;-1.586;2023-06-22T12:15:49;3.20;;;1.50;;
71164;SDS011;58859;55.132;-1.586;2023-06-22T12:18:17;2.72;;;1.40;;
71164;SDS011;58859;55.132;-1.586;2023-06-22T12:20:45;1.92;;;1.30;;
71164;SDS011;58859;55.132;-1.586;2023-06-22T12:23:11;2.47;;;1.50;;
71164;SDS011;58859;55.132;-1.586;2023-06-22T12:25:36;3.27;;;1.73;;
71164;SDS011;58859;55.132;-1.586;2023-06-22T12:28:01;2.03;;;1.33;;
71164;SDS011;58859;55.132;-1.586;2023-06-22T12:30:27;3.77;;;1.30;;
71164;SDS011;58859;55.132;-1.586;2023-06-22T12:32:53;2.53;;;1.47;;
71164;SDS011;58859;55.132;-1.586;2023-06-22T12:35:18;4.15;;;1.40;;
71164;SDS011;58859;55.132;-1.586;2023-06-22T12:37:43;3.30;;;1.20;;
71164;SDS011;58859;55.132;-1.586;2023-06-22T12:40:09;2.00;;;1.20;;
71164;SDS011;58859;55.132;-1.586;2023-06-22T12:42:35;1.63;;;1.35;;
71164;SDS011;58859;55.132;-1.586;2023-06-22T12:45:00;2.77;;;1.47;;
71164;SDS011;58859;55.132;-1.586;2023-06-22T12:47:26;1.63;;;1.03;;
71164;SDS011;58859;55.132;-1.586;2023-06-22T12:49:51;3.33;;;1.77;;
71164;SDS011;58859;55.132;-1.586;2023-06-22T12:52:16;3.03;;;1.58;;
71164;SDS011;58859;55.132;-1.586;2023-06-22T12:54:42;2.97;;;1.60;;
71164;SDS011;58859;55.132;-1.586;2023-06-22T12:57:07;2.33;;;1.57;;
71164;SDS011;58859;55.132;-1.586;2023-06-22T12:59:33;1.20;;;1.10;;
71164;SDS011;58859;55.132;-1.586;2023-06-22T13:01:58;4.30;;;1.55;;
71164;SDS011;58859;55.132;-1.586;2023-06-22T13:04:24;3.73;;;1.20;;
71164;SDS011;58859;55.132;-1.586;2023-06-22T13:06:49;1.87;;;1.30;;
71164;SDS011;58859;55.132;-1.586;2023-06-22T13:09:15;3.20;;;1.20;;
71164;SDS011;58859;55.132;-1.586;2023-06-22T13:11:43;2.50;;;1.20;;
71164;SDS011;58859;55.132;-1.586;2023-06-22T13:14:08;1.47;;;1.33;;
71164;SDS011;58859;55.132;-1.586;2023-06-22T13:16:34;1.55;;;1.17;;
71164;SDS011;58859;55.132;-1.586;2023-06-22T13:18:59;2.53;;;1.40;;
71164;SDS011;58859;55.132;-1.586;2023-06-22T13:21:25;2.30;;;1.47;;
71164;SDS011;58859;55.132;-1.586;2023-06-22T13:23:50;2.78;;;1.30;;
71164;SDS011;58859;55.132;-1.586;2023-06-22T13:26:16;5.47;;;1.60;;
71164;SDS011;58859;55.132;-1.586;2023-06-22T13:28:41;1.90;;;1.20;;
71164;SDS011;58859;55.132;-1.586;2023-06-22T13:31:07;4.53;;;1.63;;
71164;SDS011;58859;55.132;-1.586;2023-06-22T13:33:32;2.90;;;1.20;;
71164;SDS011;58859;55.132;-1.586;2023-06-22T13:35:57;2.83;;;1.60;;
71164;SDS011;58859;55.132;-1.586;2023-06-22T13:38:23;1.60;;;1.50;;
71164;SDS011;58859;55.132;-1.586;2023-06-22T13:40:48;2.33;;;1.20;;
71164;SDS011;58859;55.132;-1.586;2023-06-22T13:43:14;2.85;;;1.20;;
71164;SDS011;58859;55.132;-1.586;2023-06-22T13:45:40;3.28;;;1.23;;
71164;SDS011;58859;55.132;-1.586;2023-06-22T13:48:06;3.58;;;1.40;;
71164;SDS011;58859;55.132;-1.586;2023-06-22T13:50:32;3.80;;;2.00;;
71164;SDS011;58859;55.132;-1.586;2023-06-22T13:52:57;2.13;;;1.45;;
71164;SDS011;58859;55.132;-1.586;2023-06-22T13:55:23;2.10;;;1.13;;
71164;SDS011;58859;55.132;-1.586;2023-06-22T13:57:48;4.10;;;1.50;;
71164;SDS011;58859;55.132;-1.586;2023-06-22T14:00:15;1.67;;;1.50;;
71164;SDS011;58859;55.132;-1.586;2023-06-22T14:02:41;1.80;;;1.10;;
71164;SDS011;58859;55.132;-1.586;2023-06-22T14:05:06;7.53;;;1.93;;
71164;SDS011;58859;55.132;-1.586;2023-06-22T14:07:32;2.42;;;1.45;;
71164;SDS011;58859;55.132;-1.586;2023-06-22T14:09:58;4.97;;;1.33;;
71164;SDS011;58859;55.132;-1.586;2023-06-22T14:12:25;4.65;;;1.50;;
71164;SDS011;58859;55.132;-1.586;2023-06-22T14:14:50;2.03;;;1.20;;
71164;SDS011;58859;55.132;-1.586;2023-06-22T14:17:16;3.23;;;1.60;;
71164;SDS011;58859;55.132;-1.586;2023-06-22T14:19:41;1.75;;;1.30;;
71164;SDS011;58859;55.132;-1.586;2023-06-22T14:22:07;2.77;;;1.40;;
71164;SDS011;58859;55.132;-1.586;2023-06-22T14:24:32;2.20;;;1.50;;
71164;SDS011;58859;55.132;-1.586;2023-06-22T14:26:58;4.03;;;1.60;;
71164;SDS011;58859;55.132;-1.586;2023-06-22T14:29:24;4.10;;;1.40;;
71164;SDS011;58859;55.132;-1.586;2023-06-22T14:31:50;3.70;;;1.92;;
71164;SDS011;58859;55.132;-1.586;2023-06-22T14:34:15;2.73;;;1.10;;
71164;SDS011;58859;55.132;-1.586;2023-06-22T14:36:41;3.17;;;1.70;;